sensor_id;sensor_type;location;lat;lon;timestamp;temperature;humidity
79065;DHT22;68469;51.502;7.462;2023-04-15T00:01:22;19.70;60.90
79065;DHT22;68469;51.502;7.462;2023-04-15T00:03:53;19.70;61.00
79065;DHT22;68469;51.502;7.462;2023-04-15T00:06:20;19.70;61.00
79065;DHT22;68469;51.502;7.462;2023-04-15T00:08:46;19.60;61.00
79065;DHT22;68469;51.502;7.462;2023-04-15T00:11:12;19.70;60.90
79065;DHT22;68469;51.502;7.462;2023-04-15T00:13:38;19.60;60.80
79065;DHT22;68469;51.502;7.462;2023-04-15T00:16:05;19.60;60.80
79065;DHT22;68469;51.502;7.462;2023-04-15T00:18:31;19.60;60.80
79065;DHT22;68469;51.502;7.462;2023-04-15T00:20:57;19.60;61.00
79065;DHT22;68469;51.502;7.462;2023-04-15T00:23:23;19.60;60.90
79065;DHT22;68469;51.502;7.462;2023-04-15T00:25:48;19.60;60.80
79065;DHT22;68469;51.502;7.462;2023-04-15T00:28:15;19.60;60.90
79065;DHT22;68469;51.502;7.462;2023-04-15T00:30:40;19.60;61.30
79065;DHT22;68469;51.502;7.462;2023-04-15T00:33:06;19.60;61.00
79065;DHT22;68469;51.502;7.462;2023-04-15T00:35:32;19.60;60.90
79065;DHT22;68469;51.502;7.462;2023-04-15T00:37:58;19.60;60.80
79065;DHT22;68469;51.502;7.462;2023-04-15T00:40:24;19.60;60.90
79065;DHT22;68469;51.502;7.462;2023-04-15T00:42:50;19.60;60.80
79065;DHT22;68469;51.502;7.462;2023-04-15T00:45:16;19.60;61.60
79065;DHT22;68469;51.502;7.462;2023-04-15T00:47:42;19.60;60.90
79065;DHT22;68469;51.502;7.462;2023-04-15T00:50:09;19.60;60.90
79065;DHT22;68469;51.502;7.462;2023-04-15T00:52:35;19.60;60.90
79065;DHT22;68469;51.502;7.462;2023-04-15T00:55:02;19.60;60.90
79065;DHT22;68469;51.502;7.462;2023-04-15T00:57:29;19.60;60.80
79065;DHT22;68469;51.502;7.462;2023-04-15T00:59:55;19.60;60.90
79065;DHT22;68469;51.502;7.462;2023-04-15T01:02:22;19.60;60.90
79065;DHT22;68469;51.502;7.462;2023-04-15T01:04:48;19.60;61.00
79065;DHT22;68469;51.502;7.462;2023-04-15T01:07:14;19.60;60.90
79065;DHT22;68469;51.502;7.462;2023-04-15T01:09:40;19.60;60.90
79065;DHT22;68469;51.502;7.462;2023-04-15T01:12:06;19.60;60.90
79065;DHT22;68469;51.502;7.462;2023-04-15T01:14:33;19.60;60.80
79065;DHT22;68469;51.502;7.462;2023-04-15T01:16:59;19.60;60.80
79065;DHT22;68469;51.502;7.462;2023-04-15T01:19:25;19.60;60.90
79065;DHT22;68469;51.502;7.462;2023-04-15T01:21:51;19.60;61.20
79065;DHT22;68469;51.502;7.462;2023-04-15T01:24:17;19.60;61.70
79065;DHT22;68469;51.502;7.462;2023-04-15T01:26:44;19.60;61.00
79065;DHT22;68469;51.502;7.462;2023-04-15T01:29:11;19.60;60.90
79065;DHT22;68469;51.502;7.462;2023-04-15T01:31:36;19.60;60.90
79065;DHT22;68469;51.502;7.462;2023-04-15T01:34:02;19.60;60.80
79065;DHT22;68469;51.502;7.462;2023-04-15T01:36:28;19.60;60.70
79065;DHT22;68469;51.502;7.462;2023-04-15T01:38:55;19.60;61.00
79065;DHT22;68469;51.502;7.462;2023-04-15T01:41:27;19.50;60.90
79065;DHT22;68469;51.502;7.462;2023-04-15T01:43:54;19.60;60.90
79065;DHT22;68469;51.502;7.462;2023-04-15T01:46:19;19.60;61.00
79065;DHT22;68469;51.502;7.462;2023-04-15T01:48:45;19.60;60.90
79065;DHT22;68469;51.502;7.462;2023-04-15T01:51:10;19.50;60.60
79065;DHT22;68469;51.502;7.462;2023-04-15T01:53:37;19.50;60.90
79065;DHT22;68469;51.502;7.462;2023-04-15T01:56:03;19.50;60.70
79065;DHT22;68469;51.502;7.462;2023-04-15T01:58:28;19.50;60.80
79065;DHT22;68469;51.502;7.462;2023-04-15T02:00:54;19.60;60.90
79065;DHT22;68469;51.502;7.462;2023-04-15T02:03:20;19.50;60.90
79065;DHT22;68469;51.502;7.462;2023-04-15T02:05:46;19.50;60.80
79065;DHT22;68469;51.502;7.462;2023-04-15T02:08:11;19.60;60.90
79065;DHT22;68469;51.502;7.462;2023-04-15T02:10:37;19.60;60.90
79065;DHT22;68469;51.502;7.462;2023-04-15T02:13:03;19.50;60.70
79065;DHT22;68469;51.502;7.462;2023-04-15T02:15:29;19.60;60.90
79065;DHT22;68469;51.502;7.462;2023-04-15T02:17:55;19.50;60.70
79065;DHT22;68469;51.502;7.462;2023-04-15T02:20:21;19.60;61.00
79065;DHT22;68469;51.502;7.462;2023-04-15T02:22:47;19.50;60.80
79065;DHT22;68469;51.502;7.462;2023-04-15T02:25:13;19.60;60.90
79065;DHT22;68469;51.502;7.462;2023-04-15T02:27:41;19.50;60.80
79065;DHT22;68469;51.502;7.462;2023-04-15T02:30:07;19.50;60.80
79065;DHT22;68469;51.502;7.462;2023-04-15T02:32:32;19.60;60.90
79065;DHT22;68469;51.502;7.462;2023-04-15T02:35:02;19.50;60.90
79065;DHT22;68469;51.502;7.462;2023-04-15T02:37:28;19.60;60.90
79065;DHT22;68469;51.502;7.462;2023-04-15T02:39:56;19.50;60.80
79065;DHT22;68469;51.502;7.462;2023-04-15T02:42:21;19.60;61.00
79065;DHT22;68469;51.502;7.462;2023-04-15T02:44:47;19.50;60.90
79065;DHT22;68469;51.502;7.462;2023-04-15T02:47:12;19.50;60.70
79065;DHT22;68469;51.502;7.462;2023-04-15T02:49:39;19.50;61.00
79065;DHT22;68469;51.502;7.462;2023-04-15T02:52:05;19.50;60.90
79065;DHT22;68469;51.502;7.462;2023-04-15T02:54:31;19.50;60.70
79065;DHT22;68469;51.502;7.462;2023-04-15T02:56:58;19.60;60.80
79065;DHT22;68469;51.502;7.462;2023-04-15T02:59:24;19.50;60.80
79065;DHT22;68469;51.502;7.462;2023-04-15T03:01:50;19.50;60.80
79065;DHT22;68469;51.502;7.462;2023-04-15T03:04:15;19.50;60.80
79065;DHT22;68469;51.502;7.462;2023-04-15T03:06:41;19.60;60.70
79065;DHT22;68469;51.502;7.462;2023-04-15T03:09:07;19.50;60.80
79065;DHT22;68469;51.502;7.462;2023-04-15T03:11:32;19.50;60.70
79065;DHT22;68469;51.502;7.462;2023-04-15T03:13:58;19.50;60.80
79065;DHT22;68469;51.502;7.462;2023-04-15T03:16:24;19.50;60.70
79065;DHT22;68469;51.502;7.462;2023-04-15T03:18:50;19.50;60.90
79065;DHT22;68469;51.502;7.462;2023-04-15T03:21:15;19.50;60.80
79065;DHT22;68469;51.502;7.462;2023-04-15T03:23:41;19.50;60.70
79065;DHT22;68469;51.502;7.462;2023-04-15T03:26:07;19.50;60.80
79065;DHT22;68469;51.502;7.462;2023-04-15T03:28:32;19.50;60.80
79065;DHT22;68469;51.502;7.462;2023-04-15T03:30:58;19.50;60.70
79065;DHT22;68469;51.502;7.462;2023-04-15T03:33:24;19.50;60.70
79065;DHT22;68469;51.502;7.462;2023-04-15T03:35:51;19.50;60.70
79065;DHT22;68469;51.502;7.462;2023-04-15T03:38:17;19.50;60.70
79065;DHT22;68469;51.502;7.462;2023-04-15T03:40:45;19.50;60.70
79065;DHT22;68469;51.502;7.462;2023-04-15T03:43:10;19.50;60.80
79065;DHT22;68469;51.502;7.462;2023-04-15T03:45:36;19.50;60.70
79065;DHT22;68469;51.502;7.462;2023-04-15T03:48:02;19.50;60.70
79065;DHT22;68469;51.502;7.462;2023-04-15T03:50:28;19.50;60.70
79065;DHT22;68469;51.502;7.462;2023-04-15T03:52:53;19.50;60.70
79065;DHT22;68469;51.502;7.462;2023-04-15T03:55:19;19.50;60.70
79065;DHT22;68469;51.502;7.462;2023-04-15T03:57:45;19.50;60.70
79065;DHT22;68469;51.502;7.462;2023-04-15T04:00:10;19.50;60.80
79065;DHT22;68469;51.502;7.462;2023-04-15T04:02:36;19.50;60.70
79065;DHT22;68469;51.502;7.462;2023-04-15T04:05:02;19.50;60.70
79065;DHT22;68469;51.502;7.462;2023-04-15T04:07:28;19.50;60.70
79065;DHT22;68469;51.502;7.462;2023-04-15T04:09:55;19.40;60.70
79065;DHT22;68469;51.502;7.462;2023-04-15T04:12:20;19.40;60.70
79065;DHT22;68469;51.502;7.462;2023-04-15T04:14:46;19.40;60.70
79065;DHT22;68469;51.502;7.462;2023-04-15T04:17:12;19.40;60.70
79065;DHT22;68469;51.502;7.462;2023-04-15T04:19:38;19.50;60.80
79065;DHT22;68469;51.502;7.462;2023-04-15T04:22:03;19.50;60.70
79065;DHT22;68469;51.502;7.462;2023-04-15T04:24:30;19.40;60.60
79065;DHT22;68469;51.502;7.462;2023-04-15T04:26:55;19.50;60.80
79065;DHT22;68469;51.502;7.462;2023-04-15T04:29:21;19.40;60.70
79065;DHT22;68469;51.502;7.462;2023-04-15T04:31:47;19.40;60.60
79065;DHT22;68469;51.502;7.462;2023-04-15T04:34:13;19.40;60.70
79065;DHT22;68469;51.502;7.462;2023-04-15T04:36:39;19.40;60.70
79065;DHT22;68469;51.502;7.462;2023-04-15T04:39:04;19.50;60.70
79065;DHT22;68469;51.502;7.462;2023-04-15T04:41:30;19.40;60.70
79065;DHT22;68469;51.502;7.462;2023-04-15T04:43:56;19.40;60.60
79065;DHT22;68469;51.502;7.462;2023-04-15T04:46:22;19.50;60.70
79065;DHT22;68469;51.502;7.462;2023-04-15T04:48:48;19.40;60.50
79065;DHT22;68469;51.502;7.462;2023-04-15T04:51:13;19.40;60.60
79065;DHT22;68469;51.502;7.462;2023-04-15T04:53:39;19.40;60.60
79065;DHT22;68469;51.502;7.462;2023-04-15T04:56:05;19.40;60.70
79065;DHT22;68469;51.502;7.462;2023-04-15T04:58:30;19.40;60.70
79065;DHT22;68469;51.502;7.462;2023-04-15T05:00:56;19.40;60.70
79065;DHT22;68469;51.502;7.462;2023-04-15T05:03:22;19.40;60.60
79065;DHT22;68469;51.502;7.462;2023-04-15T05:05:48;19.40;60.60
79065;DHT22;68469;51.502;7.462;2023-04-15T05:08:14;19.40;60.60
79065;DHT22;68469;51.502;7.462;2023-04-15T05:10:40;19.40;60.50
79065;DHT22;68469;51.502;7.462;2023-04-15T05:13:06;19.40;60.50
79065;DHT22;68469;51.502;7.462;2023-04-15T05:15:32;19.40;60.60
79065;DHT22;68469;51.502;7.462;2023-04-15T05:17:59;19.40;60.60
79065;DHT22;68469;51.502;7.462;2023-04-15T05:20:24;19.40;60.60
79065;DHT22;68469;51.502;7.462;2023-04-15T05:22:50;19.40;60.60
79065;DHT22;68469;51.502;7.462;2023-04-15T05:25:16;19.40;60.60
79065;DHT22;68469;51.502;7.462;2023-04-15T05:27:42;19.50;60.70
79065;DHT22;68469;51.502;7.462;2023-04-15T05:30:08;19.40;60.60
79065;DHT22;68469;51.502;7.462;2023-04-15T05:32:34;19.40;60.60
79065;DHT22;68469;51.502;7.462;2023-04-15T05:34:59;19.40;60.60
79065;DHT22;68469;51.502;7.462;2023-04-15T05:37:25;19.40;60.50
79065;DHT22;68469;51.502;7.462;2023-04-15T05:39:51;19.40;60.70
79065;DHT22;68469;51.502;7.462;2023-04-15T05:42:17;19.40;60.70
79065;DHT22;68469;51.502;7.462;2023-04-15T05:44:42;19.40;60.60
79065;DHT22;68469;51.502;7.462;2023-04-15T05:47:08;19.40;60.60
79065;DHT22;68469;51.502;7.462;2023-04-15T05:49:34;19.40;60.50
79065;DHT22;68469;51.502;7.462;2023-04-15T05:52:00;19.40;60.40
79065;DHT22;68469;51.502;7.462;2023-04-15T05:54:26;19.40;60.50
79065;DHT22;68469;51.502;7.462;2023-04-15T05:56:52;19.50;60.50
79065;DHT22;68469;51.502;7.462;2023-04-15T05:59:18;19.40;60.40
79065;DHT22;68469;51.502;7.462;2023-04-15T06:01:43;19.40;60.50
79065;DHT22;68469;51.502;7.462;2023-04-15T06:04:09;19.50;60.70
79065;DHT22;68469;51.502;7.462;2023-04-15T06:06:36;19.40;60.50
79065;DHT22;68469;51.502;7.462;2023-04-15T06:09:03;19.40;61.10
79065;DHT22;68469;51.502;7.462;2023-04-15T06:11:28;19.40;60.30
79065;DHT22;68469;51.502;7.462;2023-04-15T06:13:54;19.40;60.30
79065;DHT22;68469;51.502;7.462;2023-04-15T06:16:19;19.40;60.30
79065;DHT22;68469;51.502;7.462;2023-04-15T06:18:45;19.50;60.30
79065;DHT22;68469;51.502;7.462;2023-04-15T06:21:11;19.40;60.30
79065;DHT22;68469;51.502;7.462;2023-04-15T06:23:36;19.40;60.20
79065;DHT22;68469;51.502;7.462;2023-04-15T06:26:02;19.50;60.50
79065;DHT22;68469;51.502;7.462;2023-04-15T06:28:28;19.40;60.50
79065;DHT22;68469;51.502;7.462;2023-04-15T06:30:54;19.40;60.40
79065;DHT22;68469;51.502;7.462;2023-04-15T06:33:20;19.50;60.30
79065;DHT22;68469;51.502;7.462;2023-04-15T06:35:45;19.50;60.40
79065;DHT22;68469;51.502;7.462;2023-04-15T06:38:11;19.50;60.30
79065;DHT22;68469;51.502;7.462;2023-04-15T06:40:37;19.50;60.30
79065;DHT22;68469;51.502;7.462;2023-04-15T06:43:03;19.50;60.30
79065;DHT22;68469;51.502;7.462;2023-04-15T06:45:29;19.50;60.30
79065;DHT22;68469;51.502;7.462;2023-04-15T06:47:55;19.50;60.20
79065;DHT22;68469;51.502;7.462;2023-04-15T06:50:21;19.50;60.30
79065;DHT22;68469;51.502;7.462;2023-04-15T06:52:47;19.50;60.20
79065;DHT22;68469;51.502;7.462;2023-04-15T06:55:12;19.50;60.30
79065;DHT22;68469;51.502;7.462;2023-04-15T06:57:39;19.50;60.20
79065;DHT22;68469;51.502;7.462;2023-04-15T07:00:05;19.50;60.30
79065;DHT22;68469;51.502;7.462;2023-04-15T07:02:31;19.50;60.30
79065;DHT22;68469;51.502;7.462;2023-04-15T07:04:57;19.50;60.10
79065;DHT22;68469;51.502;7.462;2023-04-15T07:07:23;19.50;60.10
79065;DHT22;68469;51.502;7.462;2023-04-15T07:09:48;19.50;60.10
79065;DHT22;68469;51.502;7.462;2023-04-15T07:12:14;19.50;60.10
79065;DHT22;68469;51.502;7.462;2023-04-15T07:14:40;19.50;60.30
79065;DHT22;68469;51.502;7.462;2023-04-15T07:17:05;19.50;60.20
79065;DHT22;68469;51.502;7.462;2023-04-15T07:19:31;19.50;60.30
79065;DHT22;68469;51.502;7.462;2023-04-15T07:21:57;19.50;60.20
79065;DHT22;68469;51.502;7.462;2023-04-15T07:24:22;19.50;60.20
79065;DHT22;68469;51.502;7.462;2023-04-15T07:26:52;19.50;60.20
79065;DHT22;68469;51.502;7.462;2023-04-15T07:29:18;19.50;60.00
79065;DHT22;68469;51.502;7.462;2023-04-15T07:31:43;19.50;60.10
79065;DHT22;68469;51.502;7.462;2023-04-15T07:34:09;19.50;60.10
79065;DHT22;68469;51.502;7.462;2023-04-15T07:36:35;19.50;60.20
79065;DHT22;68469;51.502;7.462;2023-04-15T07:39:01;19.50;60.00
79065;DHT22;68469;51.502;7.462;2023-04-15T07:41:29;19.50;59.60
79065;DHT22;68469;51.502;7.462;2023-04-15T07:43:55;19.50;59.80
79065;DHT22;68469;51.502;7.462;2023-04-15T07:46:20;19.50;59.70
79065;DHT22;68469;51.502;7.462;2023-04-15T07:48:48;19.50;59.90
79065;DHT22;68469;51.502;7.462;2023-04-15T07:51:13;19.50;60.10
79065;DHT22;68469;51.502;7.462;2023-04-15T07:53:39;19.60;60.50
79065;DHT22;68469;51.502;7.462;2023-04-15T07:56:05;19.70;59.90
79065;DHT22;68469;51.502;7.462;2023-04-15T07:58:31;19.70;60.80
79065;DHT22;68469;51.502;7.462;2023-04-15T08:00:56;19.70;59.70
79065;DHT22;68469;51.502;7.462;2023-04-15T08:03:22;19.70;60.20
79065;DHT22;68469;51.502;7.462;2023-04-15T08:05:48;19.80;59.40
79065;DHT22;68469;51.502;7.462;2023-04-15T08:08:13;19.70;59.20
79065;DHT22;68469;51.502;7.462;2023-04-15T08:10:39;19.80;59.50
79065;DHT22;68469;51.502;7.462;2023-04-15T08:13:05;19.80;60.50
79065;DHT22;68469;51.502;7.462;2023-04-15T08:15:31;19.80;59.50
79065;DHT22;68469;51.502;7.462;2023-04-15T08:17:57;19.80;59.70
79065;DHT22;68469;51.502;7.462;2023-04-15T08:20:25;19.80;59.10
79065;DHT22;68469;51.502;7.462;2023-04-15T08:22:50;19.80;58.70
79065;DHT22;68469;51.502;7.462;2023-04-15T08:25:17;19.80;59.00
79065;DHT22;68469;51.502;7.462;2023-04-15T08:27:44;19.80;59.00
79065;DHT22;68469;51.502;7.462;2023-04-15T08:30:10;19.80;59.30
79065;DHT22;68469;51.502;7.462;2023-04-15T08:32:36;19.80;58.70
79065;DHT22;68469;51.502;7.462;2023-04-15T08:35:02;19.80;58.40
79065;DHT22;68469;51.502;7.462;2023-04-15T08:37:28;19.80;57.70
79065;DHT22;68469;51.502;7.462;2023-04-15T08:39:53;19.80;58.00
79065;DHT22;68469;51.502;7.462;2023-04-15T08:42:26;19.80;58.00
79065;DHT22;68469;51.502;7.462;2023-04-15T08:44:52;19.70;57.50
79065;DHT22;68469;51.502;7.462;2023-04-15T08:47:20;19.70;57.70
79065;DHT22;68469;51.502;7.462;2023-04-15T08:49:47;19.70;57.90
79065;DHT22;68469;51.502;7.462;2023-04-15T08:52:18;19.70;58.10
79065;DHT22;68469;51.502;7.462;2023-04-15T08:54:44;19.70;58.30
79065;DHT22;68469;51.502;7.462;2023-04-15T08:57:10;19.70;58.40
79065;DHT22;68469;51.502;7.462;2023-04-15T08:59:37;19.70;58.50
79065;DHT22;68469;51.502;7.462;2023-04-15T09:02:03;19.60;58.60
79065;DHT22;68469;51.502;7.462;2023-04-15T09:04:28;19.70;58.60
79065;DHT22;68469;51.502;7.462;2023-04-15T09:06:54;19.60;58.80
79065;DHT22;68469;51.502;7.462;2023-04-15T09:09:21;19.60;58.70
79065;DHT22;68469;51.502;7.462;2023-04-15T09:11:47;19.60;58.70
79065;DHT22;68469;51.502;7.462;2023-04-15T09:14:14;19.60;58.80
79065;DHT22;68469;51.502;7.462;2023-04-15T09:16:56;19.60;58.90
79065;DHT22;68469;51.502;7.462;2023-04-15T09:19:23;19.60;58.90
79065;DHT22;68469;51.502;7.462;2023-04-15T09:21:52;19.60;59.00
79065;DHT22;68469;51.502;7.462;2023-04-15T09:24:17;19.60;58.90
79065;DHT22;68469;51.502;7.462;2023-04-15T09:26:43;19.60;58.90
79065;DHT22;68469;51.502;7.462;2023-04-15T09:29:09;19.60;58.90
79065;DHT22;68469;51.502;7.462;2023-04-15T09:31:38;19.60;59.00
79065;DHT22;68469;51.502;7.462;2023-04-15T09:34:05;19.60;58.90
79065;DHT22;68469;51.502;7.462;2023-04-15T09:36:57;19.60;59.00
79065;DHT22;68469;51.502;7.462;2023-04-15T09:39:23;19.60;59.00
79065;DHT22;68469;51.502;7.462;2023-04-15T09:42:04;19.60;59.00
79065;DHT22;68469;51.502;7.462;2023-04-15T09:44:31;19.60;59.00
79065;DHT22;68469;51.502;7.462;2023-04-15T09:46:56;19.60;59.00
79065;DHT22;68469;51.502;7.462;2023-04-15T09:49:22;19.60;59.00
79065;DHT22;68469;51.502;7.462;2023-04-15T09:51:48;19.60;59.00
79065;DHT22;68469;51.502;7.462;2023-04-15T09:54:18;19.60;59.10
79065;DHT22;68469;51.502;7.462;2023-04-15T09:56:45;19.60;59.10
79065;DHT22;68469;51.502;7.462;2023-04-15T09:59:11;19.60;59.00
79065;DHT22;68469;51.502;7.462;2023-04-15T10:01:37;19.60;59.00
79065;DHT22;68469;51.502;7.462;2023-04-15T10:04:05;19.60;59.20
79065;DHT22;68469;51.502;7.462;2023-04-15T10:06:31;19.60;59.20
79065;DHT22;68469;51.502;7.462;2023-04-15T10:08:58;19.50;59.10
79065;DHT22;68469;51.502;7.462;2023-04-15T10:11:27;19.50;59.00
79065;DHT22;68469;51.502;7.462;2023-04-15T10:13:54;19.60;59.80
79065;DHT22;68469;51.502;7.462;2023-04-15T10:16:22;19.60;59.10
79065;DHT22;68469;51.502;7.462;2023-04-15T10:18:54;19.60;59.40
79065;DHT22;68469;51.502;7.462;2023-04-15T10:21:20;19.60;59.50
79065;DHT22;68469;51.502;7.462;2023-04-15T10:23:48;19.60;59.00
79065;DHT22;68469;51.502;7.462;2023-04-15T10:26:15;19.60;58.90
79065;DHT22;68469;51.502;7.462;2023-04-15T10:28:42;19.60;59.40
79065;DHT22;68469;51.502;7.462;2023-04-15T10:31:11;19.70;59.50
79065;DHT22;68469;51.502;7.462;2023-04-15T10:33:38;19.70;59.20
79065;DHT22;68469;51.502;7.462;2023-04-15T10:36:05;19.70;59.90
79065;DHT22;68469;51.502;7.462;2023-04-15T10:38:39;19.70;59.30
79065;DHT22;68469;51.502;7.462;2023-04-15T10:43:49;19.70;59.30
79065;DHT22;68469;51.502;7.462;2023-04-15T10:46:23;19.70;59.20
79065;DHT22;68469;51.502;7.462;2023-04-15T10:51:42;19.60;59.00
79065;DHT22;68469;51.502;7.462;2023-04-15T10:54:13;19.50;56.90
79065;DHT22;68469;51.502;7.462;2023-04-15T10:56:45;19.40;56.40
79065;DHT22;68469;51.502;7.462;2023-04-15T10:59:15;19.30;57.00
79065;DHT22;68469;51.502;7.462;2023-04-15T11:01:56;19.40;57.70
79065;DHT22;68469;51.502;7.462;2023-04-15T11:04:55;19.40;58.50
79065;DHT22;68469;51.502;7.462;2023-04-15T11:07:47;19.40;58.40
79065;DHT22;68469;51.502;7.462;2023-04-15T11:12:42;19.50;58.90
79065;DHT22;68469;51.502;7.462;2023-04-15T11:18:25;19.50;59.30
79065;DHT22;68469;51.502;7.462;2023-04-15T11:20:56;19.50;59.10
79065;DHT22;68469;51.502;7.462;2023-04-15T11:23:27;19.50;59.00
79065;DHT22;68469;51.502;7.462;2023-04-15T11:25:57;19.60;59.30
79065;DHT22;68469;51.502;7.462;2023-04-15T11:28:25;19.50;59.00
79065;DHT22;68469;51.502;7.462;2023-04-15T11:30:51;19.50;59.00
79065;DHT22;68469;51.502;7.462;2023-04-15T11:33:18;19.60;59.20
79065;DHT22;68469;51.502;7.462;2023-04-15T11:35:44;19.50;59.10
79065;DHT22;68469;51.502;7.462;2023-04-15T11:38:11;19.50;59.20
79065;DHT22;68469;51.502;7.462;2023-04-15T11:40:41;19.50;59.30
79065;DHT22;68469;51.502;7.462;2023-04-15T11:43:16;19.50;59.30
79065;DHT22;68469;51.502;7.462;2023-04-15T11:45:56;19.50;59.30
79065;DHT22;68469;51.502;7.462;2023-04-15T11:48:30;19.50;59.30
79065;DHT22;68469;51.502;7.462;2023-04-15T11:51:03;19.50;59.30
79065;DHT22;68469;51.502;7.462;2023-04-15T11:53:39;19.50;59.30
79065;DHT22;68469;51.502;7.462;2023-04-15T11:56:07;19.60;59.40
79065;DHT22;68469;51.502;7.462;2023-04-15T11:58:34;19.60;59.40
79065;DHT22;68469;51.502;7.462;2023-04-15T12:01:02;19.50;59.40
79065;DHT22;68469;51.502;7.462;2023-04-15T12:03:37;19.50;59.40
79065;DHT22;68469;51.502;7.462;2023-04-15T12:06:23;19.50;59.50
79065;DHT22;68469;51.502;7.462;2023-04-15T12:09:10;19.50;59.40
79065;DHT22;68469;51.502;7.462;2023-04-15T12:11:55;19.60;59.40
79065;DHT22;68469;51.502;7.462;2023-04-15T12:14:31;19.50;59.50
79065;DHT22;68469;51.502;7.462;2023-04-15T12:17:03;19.50;59.40
79065;DHT22;68469;51.502;7.462;2023-04-15T12:19:37;19.50;59.50
79065;DHT22;68469;51.502;7.462;2023-04-15T12:22:04;19.50;59.60
79065;DHT22;68469;51.502;7.462;2023-04-15T12:24:32;19.50;59.50
79065;DHT22;68469;51.502;7.462;2023-04-15T12:27:02;19.60;59.60
79065;DHT22;68469;51.502;7.462;2023-04-15T12:29:29;19.50;59.50
79065;DHT22;68469;51.502;7.462;2023-04-15T12:31:58;19.50;59.50
79065;DHT22;68469;51.502;7.462;2023-04-15T12:34:30;19.50;59.50
79065;DHT22;68469;51.502;7.462;2023-04-15T12:36:57;19.60;59.60
79065;DHT22;68469;51.502;7.462;2023-04-15T12:39:24;19.60;59.60
79065;DHT22;68469;51.502;7.462;2023-04-15T12:41:50;19.50;59.50
79065;DHT22;68469;51.502;7.462;2023-04-15T12:44:16;19.60;59.50
79065;DHT22;68469;51.502;7.462;2023-04-15T12:46:42;19.50;59.60
79065;DHT22;68469;51.502;7.462;2023-04-15T12:49:08;19.60;59.50
79065;DHT22;68469;51.502;7.462;2023-04-15T12:51:34;19.50;59.40
79065;DHT22;68469;51.502;7.462;2023-04-15T12:53:59;19.50;59.50
79065;DHT22;68469;51.502;7.462;2023-04-15T12:56:25;19.50;59.60
79065;DHT22;68469;51.502;7.462;2023-04-15T12:58:51;19.50;59.70
79065;DHT22;68469;51.502;7.462;2023-04-15T13:01:17;19.50;60.10
79065;DHT22;68469;51.502;7.462;2023-04-15T13:03:43;19.50;59.60
79065;DHT22;68469;51.502;7.462;2023-04-15T13:06:08;19.50;59.60
79065;DHT22;68469;51.502;7.462;2023-04-15T13:08:34;19.50;59.50
79065;DHT22;68469;51.502;7.462;2023-04-15T13:11:00;19.50;59.40
79065;DHT22;68469;51.502;7.462;2023-04-15T13:13:26;19.60;59.70
79065;DHT22;68469;51.502;7.462;2023-04-15T13:15:52;19.50;59.60
79065;DHT22;68469;51.502;7.462;2023-04-15T13:18:17;19.50;59.70
79065;DHT22;68469;51.502;7.462;2023-04-15T13:20:43;19.50;59.70
79065;DHT22;68469;51.502;7.462;2023-04-15T13:23:08;19.50;59.70
79065;DHT22;68469;51.502;7.462;2023-04-15T13:25:34;19.60;59.80
79065;DHT22;68469;51.502;7.462;2023-04-15T13:28:00;19.60;59.80
79065;DHT22;68469;51.502;7.462;2023-04-15T13:30:26;19.60;59.90
79065;DHT22;68469;51.502;7.462;2023-04-15T13:32:52;19.60;59.60
79065;DHT22;68469;51.502;7.462;2023-04-15T13:35:19;19.60;59.70
79065;DHT22;68469;51.502;7.462;2023-04-15T13:37:45;19.60;59.80
79065;DHT22;68469;51.502;7.462;2023-04-15T13:40:11;19.60;59.80
79065;DHT22;68469;51.502;7.462;2023-04-15T13:42:37;19.60;59.90
79065;DHT22;68469;51.502;7.462;2023-04-15T13:45:02;19.60;59.80
79065;DHT22;68469;51.502;7.462;2023-04-15T13:47:28;19.60;59.90
79065;DHT22;68469;51.502;7.462;2023-04-15T13:49:54;19.60;59.70
79065;DHT22;68469;51.502;7.462;2023-04-15T13:52:21;19.60;59.80
79065;DHT22;68469;51.502;7.462;2023-04-15T13:54:47;19.60;60.60
79065;DHT22;68469;51.502;7.462;2023-04-15T13:57:13;19.60;60.00
79065;DHT22;68469;51.502;7.462;2023-04-15T13:59:39;19.60;59.80
79065;DHT22;68469;51.502;7.462;2023-04-15T14:02:05;19.60;59.70
79065;DHT22;68469;51.502;7.462;2023-04-15T14:04:31;19.60;60.20
79065;DHT22;68469;51.502;7.462;2023-04-15T14:06:57;19.70;59.60
79065;DHT22;68469;51.502;7.462;2023-04-15T14:09:23;19.60;59.50
79065;DHT22;68469;51.502;7.462;2023-04-15T14:11:51;19.60;59.90
79065;DHT22;68469;51.502;7.462;2023-04-15T14:14:17;19.70;59.60
79065;DHT22;68469;51.502;7.462;2023-04-15T14:16:43;19.70;59.70
79065;DHT22;68469;51.502;7.462;2023-04-15T14:19:08;19.70;59.70
79065;DHT22;68469;51.502;7.462;2023-04-15T14:21:34;19.70;59.80
79065;DHT22;68469;51.502;7.462;2023-04-15T14:24:00;19.70;60.00
79065;DHT22;68469;51.502;7.462;2023-04-15T14:26:25;19.70;60.00
79065;DHT22;68469;51.502;7.462;2023-04-15T14:28:51;19.60;59.90
79065;DHT22;68469;51.502;7.462;2023-04-15T14:31:18;19.60;60.00
79065;DHT22;68469;51.502;7.462;2023-04-15T14:33:43;19.60;60.00
79065;DHT22;68469;51.502;7.462;2023-04-15T14:36:09;19.60;60.00
79065;DHT22;68469;51.502;7.462;2023-04-15T14:38:35;19.60;60.00
79065;DHT22;68469;51.502;7.462;2023-04-15T14:41:03;19.60;60.10
79065;DHT22;68469;51.502;7.462;2023-04-15T14:43:29;19.60;60.00
79065;DHT22;68469;51.502;7.462;2023-04-15T14:45:55;19.60;59.90
79065;DHT22;68469;51.502;7.462;2023-04-15T14:48:20;19.60;60.00
79065;DHT22;68469;51.502;7.462;2023-04-15T14:50:46;19.60;60.00
79065;DHT22;68469;51.502;7.462;2023-04-15T14:53:12;19.60;60.70
79065;DHT22;68469;51.502;7.462;2023-04-15T14:55:37;19.60;60.00
79065;DHT22;68469;51.502;7.462;2023-04-15T14:58:03;19.50;59.90
79065;DHT22;68469;51.502;7.462;2023-04-15T15:00:29;19.60;60.00
79065;DHT22;68469;51.502;7.462;2023-04-15T15:02:55;19.60;60.00
79065;DHT22;68469;51.502;7.462;2023-04-15T15:05:21;19.60;60.00
79065;DHT22;68469;51.502;7.462;2023-04-15T15:07:46;19.60;59.90
79065;DHT22;68469;51.502;7.462;2023-04-15T15:10:12;19.50;59.90
79065;DHT22;68469;51.502;7.462;2023-04-15T15:12:37;19.50;59.90
79065;DHT22;68469;51.502;7.462;2023-04-15T15:15:03;19.50;59.90
79065;DHT22;68469;51.502;7.462;2023-04-15T15:17:29;19.60;59.90
79065;DHT22;68469;51.502;7.462;2023-04-15T15:19:55;19.50;59.90
79065;DHT22;68469;51.502;7.462;2023-04-15T15:22:21;19.50;59.90
79065;DHT22;68469;51.502;7.462;2023-04-15T15:24:47;19.50;60.00
79065;DHT22;68469;51.502;7.462;2023-04-15T15:27:12;19.50;60.00
79065;DHT22;68469;51.502;7.462;2023-04-15T15:29:38;19.50;59.90
79065;DHT22;68469;51.502;7.462;2023-04-15T15:32:04;19.50;60.00
79065;DHT22;68469;51.502;7.462;2023-04-15T15:34:29;19.50;59.90
79065;DHT22;68469;51.502;7.462;2023-04-15T15:36:55;19.50;60.00
79065;DHT22;68469;51.502;7.462;2023-04-15T15:39:22;19.50;60.00